createdAt,value
2023-01-17T00:02:08.067Z,62.83
2023-01-17T00:04:54.012Z,70.90
2023-01-17T00:07:42.521Z,75.30
2023-01-17T00:10:11.472Z,73.93
2023-01-17T00:12:39.153Z,80.57
2023-01-17T00:15:07.204Z,79.47
2023-01-17T00:17:34.415Z,74.93
2023-01-17T00:20:21.781Z,78.07
2023-01-17T00:23:09.130Z,81.75
2023-01-17T00:25:57.727Z,88.80
2023-01-17T00:28:26.152Z,82.40
2023-01-17T00:30:53.768Z,74.78
2023-01-17T00:33:22.532Z,86.38
2023-01-17T00:35:51.053Z,82.55
2023-01-17T00:38:23.123Z,74.35
2023-01-17T00:40:50.350Z,75.72
2023-01-17T00:43:42.120Z,80.68
2023-01-17T00:46:27.797Z,81.40
2023-01-17T00:49:13.647Z,71.10
2023-01-17T00:51:59.423Z,77.68
2023-01-17T00:54:44.983Z,67.88
2023-01-17T00:57:30.919Z,67.38
2023-01-17T01:00:16.467Z,68.72
2023-01-17T01:03:02.495Z,67.80
2023-01-17T01:05:48.467Z,71.55
2023-01-17T01:08:40.103Z,68.05
2023-01-17T01:11:31.054Z,76.15
2023-01-17T01:14:23.913Z,63.25
2023-01-17T01:17:09.420Z,60.05
2023-01-17T01:19:54.826Z,52.25
2023-01-17T01:22:40.466Z,57.28
2023-01-17T01:25:26.675Z,56.30
2023-01-17T01:28:21.616Z,56.25
2023-01-17T01:31:07.175Z,55.65
2023-01-17T01:33:34.312Z,57.03
2023-01-17T01:36:01.395Z,57.35
2023-01-17T01:38:28.533Z,45.53
2023-01-17T01:40:56.460Z,50.90
2023-01-17T01:43:48.068Z,49.60
2023-01-17T01:46:20.220Z,54.95
2023-01-17T01:48:52.815Z,47.30
2023-01-17T01:51:25.560Z,48.17
2023-01-17T01:53:55.627Z,45.00
2023-01-17T01:56:23.846Z,42.67
2023-01-17T01:58:52.902Z,45.38
2023-01-17T02:01:20.211Z,50.78
2023-01-17T02:03:49.387Z,50.60
2023-01-17T02:06:26.948Z,45.90
2023-01-17T02:08:55.859Z,49.88
2023-01-17T02:11:22.949Z,48.05
2023-01-17T02:13:50.072Z,57.83
2023-01-17T02:16:38.295Z,57.17
2023-01-17T02:19:56.208Z,50.25
2023-01-17T02:22:44.939Z,46.28
2023-01-17T02:25:26.951Z,47.22
2023-01-17T02:28:29.169Z,48.22
2023-01-17T02:31:10.225Z,51.58
2023-01-17T02:33:47.407Z,54.40
2023-01-17T02:36:17.351Z,53.30
2023-01-17T02:38:56.966Z,55.13
2023-01-17T02:41:33.437Z,54.15
2023-01-17T02:44:01.943Z,48.97
2023-01-17T02:46:29.049Z,53.72
2023-01-17T02:48:57.767Z,54.58
2023-01-17T02:52:00.773Z,46.72
2023-01-17T02:54:42.894Z,48.63
2023-01-17T02:57:12.650Z,50.13
2023-01-17T03:00:14.723Z,51.58
2023-01-17T03:02:55.996Z,47.25
2023-01-17T03:05:31.653Z,51.47
2023-01-17T03:08:00.352Z,47.97
2023-01-17T03:10:31.499Z,51.40
2023-01-17T03:13:00.458Z,46.75
2023-01-17T03:15:27.596Z,49.38
2023-01-17T03:18:00.209Z,51.00
2023-01-17T03:20:27.375Z,48.83
2023-01-17T03:22:54.451Z,52.78
2023-01-17T03:25:21.503Z,50.42
2023-01-17T03:27:48.662Z,55.95
2023-01-17T03:30:16.121Z,49.65
2023-01-17T03:32:43.271Z,57.83
2023-01-17T03:35:10.359Z,51.97
2023-01-17T03:37:37.456Z,44.42
2023-01-17T03:40:05.344Z,50.90
2023-01-17T03:42:32.436Z,48.03
2023-01-17T03:44:59.518Z,51.03
2023-01-17T03:47:26.662Z,57.70
2023-01-17T03:49:53.738Z,55.63
2023-01-17T03:52:20.839Z,56.30
2023-01-17T03:54:48.472Z,56.47
2023-01-17T03:57:15.670Z,58.60
2023-01-17T03:59:42.787Z,53.88
2023-01-17T04:02:09.943Z,58.38
2023-01-17T04:04:37.074Z,54.30
2023-01-17T04:07:04.451Z,50.80
2023-01-17T04:09:34.028Z,51.15
2023-01-17T04:12:02.670Z,55.10
2023-01-17T04:14:29.899Z,62.42
2023-01-17T04:16:57.264Z,55.65
2023-01-17T04:19:24.511Z,53.97
2023-01-17T04:21:51.571Z,65.38
2023-01-17T04:24:18.657Z,59.72
2023-01-17T04:26:45.765Z,60.42
2023-01-17T04:29:12.835Z,59.08
2023-01-17T04:31:40.056Z,62.80
2023-01-17T04:34:07.192Z,67.88
2023-01-17T04:36:34.247Z,63.55
2023-01-17T04:39:01.353Z,58.63
2023-01-17T04:41:28.445Z,56.40
2023-01-17T04:43:55.669Z,50.08
2023-01-17T04:46:22.793Z,62.92
2023-01-17T04:48:49.885Z,59.38
2023-01-17T04:51:17.085Z,57.15
2023-01-17T04:53:44.173Z,50.53
2023-01-17T04:56:11.266Z,49.42
2023-01-17T04:58:38.375Z,53.88
2023-01-17T05:01:08.051Z,56.72
2023-01-17T05:03:36.153Z,52.50
2023-01-17T05:06:03.628Z,52.60
2023-01-17T05:08:30.864Z,52.13
2023-01-17T05:10:57.987Z,46.58
2023-01-17T05:13:25.064Z,55.13
2023-01-17T05:15:52.344Z,52.03
2023-01-17T05:18:19.560Z,61.05
2023-01-17T05:20:47.004Z,54.55
2023-01-17T05:23:14.060Z,62.13
2023-01-17T05:25:44.221Z,55.50
2023-01-17T05:28:13.581Z,54.13
2023-01-17T05:30:41.165Z,57.88
2023-01-17T05:33:10.125Z,59.78
2023-01-17T05:35:37.599Z,51.58
2023-01-17T05:38:04.819Z,60.97
2023-01-17T05:40:33.336Z,59.92
2023-01-17T05:43:01.680Z,49.97
2023-01-17T05:45:30.607Z,61.22
2023-01-17T05:47:58.505Z,61.10
2023-01-17T05:50:29.145Z,60.97
2023-01-17T05:53:10.772Z,63.03
2023-01-17T05:55:38.769Z,59.30
2023-01-17T05:58:08.631Z,55.83
2023-01-17T06:00:37.310Z,54.20
2023-01-17T06:03:04.522Z,56.72
2023-01-17T06:05:31.796Z,52.22
2023-01-17T06:07:59.322Z,48.53
2023-01-17T06:10:27.387Z,58.20
2023-01-17T06:13:09.646Z,54.20
2023-01-17T06:15:37.986Z,46.80
2023-01-17T06:18:10.181Z,52.50
2023-01-17T06:20:37.931Z,57.72
2023-01-17T06:23:07.522Z,53.17
2023-01-17T06:25:39.481Z,46.10
2023-01-17T06:28:07.498Z,54.47
2023-01-17T06:30:34.795Z,58.25
2023-01-17T06:33:02.755Z,59.38
2023-01-17T06:35:30.302Z,49.72
2023-01-17T06:37:59.678Z,49.28
2023-01-17T06:40:28.635Z,49.28
2023-01-17T06:43:03.197Z,50.63
2023-01-17T06:45:31.978Z,58.95
2023-01-17T06:48:00.713Z,47.58
2023-01-17T06:50:27.851Z,49.08
2023-01-17T06:53:00.357Z,53.72
2023-01-17T06:55:28.880Z,51.20
2023-01-17T06:57:57.270Z,52.58
2023-01-17T07:00:24.600Z,46.03
2023-01-17T07:02:52.390Z,49.10
2023-01-17T07:05:20.226Z,56.83
2023-01-17T07:07:48.067Z,45.10
2023-01-17T07:10:15.940Z,55.13
2023-01-17T07:12:43.040Z,54.65
2023-01-17T07:15:10.801Z,58.55
2023-01-17T07:17:38.370Z,58.70
2023-01-17T07:20:06.788Z,47.90
2023-01-17T07:22:34.134Z,51.75
2023-01-17T07:25:01.241Z,53.10
2023-01-17T07:27:30.441Z,52.58
2023-01-17T07:29:58.030Z,59.67
2023-01-17T07:32:26.614Z,58.28
2023-01-17T07:34:54.730Z,62.25
2023-01-17T07:37:22.021Z,54.70
2023-01-17T07:39:49.394Z,56.35
2023-01-17T07:42:16.581Z,59.63
2023-01-17T07:44:45.328Z,53.13
2023-01-17T07:47:12.412Z,58.28
2023-01-17T07:49:39.918Z,58.35
2023-01-17T07:52:08.110Z,54.30
2023-01-17T07:54:35.647Z,54.25
2023-01-17T07:57:03.701Z,49.15
2023-01-17T07:59:30.815Z,56.70
2023-01-17T08:01:58.068Z,49.20
2023-01-17T08:04:26.821Z,60.25
2023-01-17T08:06:55.010Z,58.78
2023-01-17T08:09:22.210Z,48.58
2023-01-17T08:11:49.668Z,53.45
2023-01-17T08:14:16.964Z,58.67
2023-01-17T08:16:44.104Z,59.67
2023-01-17T08:19:11.373Z,49.50
2023-01-17T08:21:38.475Z,58.65
2023-01-17T08:24:05.936Z,55.83
2023-01-17T08:26:33.059Z,55.22
2023-01-17T08:29:01.920Z,54.63
2023-01-17T08:31:35.030Z,55.35
2023-01-17T08:34:02.521Z,56.23
2023-01-17T08:36:31.182Z,54.47
2023-01-17T08:38:59.848Z,68.07
2023-01-17T08:41:27.766Z,61.15
2023-01-17T08:43:54.888Z,57.08
2023-01-17T08:46:22.486Z,56.45
2023-01-17T08:48:54.121Z,59.97
2023-01-17T08:51:22.151Z,54.58
2023-01-17T08:53:49.261Z,57.03
2023-01-17T08:56:16.371Z,57.10
2023-01-17T08:58:43.528Z,48.72
2023-01-17T09:01:10.804Z,64.95
2023-01-17T09:03:40.765Z,60.30
2023-01-17T09:06:13.701Z,57.38
2023-01-17T09:08:41.154Z,65.45
2023-01-17T09:11:10.664Z,51.17
2023-01-17T09:13:38.631Z,53.53
2023-01-17T09:16:06.521Z,54.17
2023-01-17T09:18:34.854Z,58.10
2023-01-17T09:21:16.112Z,50.60
2023-01-17T09:23:43.615Z,51.83
2023-01-17T09:26:23.977Z,54.63
2023-01-17T09:28:51.965Z,51.90
2023-01-17T09:31:20.993Z,54.17
2023-01-17T09:33:49.549Z,49.08
2023-01-17T09:36:17.179Z,55.97
2023-01-17T09:38:44.719Z,54.45
2023-01-17T09:41:27.393Z,54.85
2023-01-17T09:43:57.263Z,53.60
2023-01-17T09:46:29.090Z,60.67
2023-01-17T09:49:06.176Z,57.30
2023-01-17T09:51:33.590Z,53.38
2023-01-17T09:54:02.441Z,59.78
2023-01-17T09:56:40.158Z,50.17
2023-01-17T09:59:32.159Z,56.03
2023-01-17T10:02:02.028Z,56.53
2023-01-17T10:04:41.243Z,52.15
2023-01-17T10:07:11.267Z,57.80
2023-01-17T10:09:38.274Z,58.08
2023-01-17T10:12:16.918Z,45.03
2023-01-17T10:15:26.907Z,46.78
2023-01-17T10:18:31.783Z,49.22
2023-01-17T10:21:05.702Z,50.05
